createdAt,value
2018-03-31T00:00:58.475Z,100375.55
2018-03-31T00:03:26.928Z,100371.70
2018-03-31T00:05:55.715Z,100378.44
2018-03-31T00:08:24.505Z,100385.59
2018-03-31T00:10:52.782Z,100386.37
2018-03-31T00:13:21.871Z,100377.50
2018-03-31T00:15:51.408Z,100373.70
2018-03-31T00:18:22.109Z,100375.80
2018-03-31T00:20:52.125Z,100372.42
2018-03-31T00:23:21.229Z,100373.27
2018-03-31T00:25:50.609Z,100366.09
2018-03-31T00:28:20.084Z,100366.50
2018-03-31T00:30:48.533Z,100361.86
2018-03-31T00:33:17.866Z,100356.38
2018-03-31T00:35:47.068Z,100355.05
2018-03-31T00:38:15.598Z,100355.89
2018-03-31T00:40:43.982Z,100356.28
2018-03-31T00:45:51.811Z,100348.28
2018-03-31T00:48:21.220Z,100346.16
2018-03-31T00:50:49.683Z,100344.02
2018-03-31T00:53:18.264Z,100351.52
2018-03-31T00:55:46.604Z,100343.91
2018-03-31T00:58:15.458Z,100340.52
2018-03-31T01:00:48.115Z,100341.80
2018-03-31T01:03:16.699Z,100338.87
2018-03-31T01:05:45.026Z,100330.46
2018-03-31T01:08:14.566Z,100326.25
2018-03-31T01:10:42.962Z,100334.27
2018-03-31T01:13:11.468Z,100331.26
2018-03-31T01:15:41.669Z,100323.67
2018-03-31T01:18:09.960Z,100320.31
2018-03-31T01:20:39.055Z,100321.56
2018-03-31T01:23:09.382Z,100323.66
2018-03-31T01:25:37.852Z,100320.27
2018-03-31T01:28:06.995Z,100316.05
2018-03-31T01:30:35.662Z,100313.53
2018-03-31T01:33:04.781Z,100303.00
2018-03-31T01:35:33.215Z,100299.13
2018-03-31T01:38:01.696Z,100304.98
2018-03-31T01:40:30.216Z,100302.85
2018-03-31T01:42:58.756Z,100304.53
2018-03-31T01:45:28.775Z,100308.36
2018-03-31T01:47:58.147Z,100305.82
2018-03-31T01:50:26.557Z,100310.48
2018-03-31T01:52:56.232Z,100312.20
2018-03-31T01:55:25.356Z,100310.52
2018-03-31T01:57:54.464Z,100312.64
2018-03-31T02:00:25.733Z,100313.05
2018-03-31T02:02:54.496Z,100315.98
2018-03-31T02:05:23.116Z,100309.65
2018-03-31T02:07:58.482Z,100307.55
2018-03-31T02:10:26.908Z,100306.30
2018-03-31T02:12:55.391Z,100298.71
2018-03-31T02:15:24.524Z,100295.00
2018-03-31T02:17:53.269Z,100290.79
2018-03-31T02:20:22.505Z,100294.16
2018-03-31T02:22:51.759Z,100285.30
2018-03-31T02:25:20.254Z,100289.50
2018-03-31T02:27:48.639Z,100281.00
2018-03-31T02:30:17.080Z,100274.27
2018-03-31T02:32:45.492Z,100273.06
2018-03-31T02:35:13.874Z,100277.63
2018-03-31T02:37:42.462Z,100274.15
2018-03-31T02:40:10.913Z,100266.98
2018-03-31T02:42:39.309Z,100269.09
2018-03-31T02:45:08.864Z,100266.20
2018-03-31T02:47:37.308Z,100270.44
2018-03-31T02:50:05.630Z,100265.28
2018-03-31T02:52:36.564Z,100265.70
2018-03-31T02:55:04.807Z,100260.67
2018-03-31T02:57:33.520Z,100261.50
2018-03-31T03:02:40.207Z,100262.44
2018-03-31T03:05:08.500Z,100257.39
2018-03-31T03:07:38.111Z,100258.68
2018-03-31T03:10:06.469Z,100248.99
2018-03-31T03:12:34.815Z,100249.89
2018-03-31T03:15:05.032Z,100248.23
2018-03-31T03:17:33.113Z,100243.58
2018-03-31T03:20:01.985Z,100243.17
2018-03-31T03:22:30.285Z,100245.71
2018-03-31T03:24:58.364Z,100245.34
2018-03-31T03:27:26.434Z,100246.63
2018-03-31T03:29:56.596Z,100251.70
2018-03-31T03:32:24.827Z,100247.11
2018-03-31T03:34:53.004Z,100247.15
2018-03-31T03:37:21.176Z,100246.36
2018-03-31T03:39:49.463Z,100248.09
2018-03-31T03:42:17.731Z,100243.48
2018-03-31T03:44:47.543Z,100245.62
2018-03-31T03:47:15.820Z,100253.25
2018-03-31T03:49:44.096Z,100254.09
2018-03-31T03:52:12.174Z,100249.88
2018-03-31T03:54:40.544Z,100247.31
2018-03-31T03:57:08.600Z,100247.28
2018-03-31T03:59:38.709Z,100251.08
2018-03-31T04:02:06.712Z,100251.08
2018-03-31T04:04:35.608Z,100251.95
2018-03-31T04:07:06.961Z,100257.48
2018-03-31T04:09:35.227Z,100257.03
2018-03-31T04:12:03.196Z,100260.86
2018-03-31T04:14:31.381Z,100256.63
2018-03-31T04:16:59.399Z,100261.30
2018-03-31T04:19:27.756Z,100260.44
2018-03-31T04:21:56.205Z,100266.34
2018-03-31T04:24:25.171Z,100269.74
2018-03-31T04:26:53.511Z,100268.45
2018-03-31T04:29:21.804Z,100271.83
2018-03-31T04:31:50.133Z,100261.24
2018-03-31T04:34:18.307Z,100262.47
2018-03-31T04:36:49.147Z,100267.11
2018-03-31T04:39:17.414Z,100276.39
2018-03-31T04:41:45.502Z,100269.98
2018-03-31T04:44:15.509Z,100273.33
2018-03-31T04:46:43.890Z,100280.45
2018-03-31T04:49:12.596Z,100291.78
2018-03-31T04:51:40.787Z,100283.63
2018-03-31T04:54:09.041Z,100286.86
2018-03-31T04:56:37.838Z,100284.23
2018-03-31T04:59:08.595Z,100280.28
2018-03-31T05:01:36.951Z,100288.19
2018-03-31T05:04:05.252Z,100280.47
2018-03-31T05:06:34.691Z,100293.46
2018-03-31T05:09:04.813Z,100293.67
2018-03-31T05:11:33.961Z,100285.02
2018-03-31T05:14:04.970Z,100290.81
2018-03-31T05:16:33.148Z,100292.20
2018-03-31T05:19:01.321Z,100294.07
2018-03-31T05:21:29.422Z,100293.84
2018-03-31T05:23:57.464Z,100295.41
2018-03-31T05:26:25.588Z,100295.33
2018-03-31T05:28:54.878Z,100298.17
2018-03-31T05:31:23.337Z,100299.46
2018-03-31T05:33:53.959Z,100303.19
2018-03-31T05:36:24.320Z,100299.85
2018-03-31T05:38:52.602Z,100303.66
2018-03-31T05:41:20.586Z,100298.05
2018-03-31T05:43:48.909Z,100295.16
2018-03-31T05:46:17.018Z,100295.09
2018-03-31T05:48:46.182Z,100297.44
2018-03-31T05:51:14.460Z,100298.31
2018-03-31T05:53:43.253Z,100301.65
2018-03-31T05:56:16.670Z,100306.83
2018-03-31T05:58:48.055Z,100309.48
2018-03-31T06:01:17.904Z,100307.38
2018-03-31T06:03:47.212Z,100311.24
2018-03-31T06:06:19.589Z,100304.02
2018-03-31T06:08:47.660Z,100293.50
2018-03-31T06:11:16.837Z,100291.67
2018-03-31T06:13:45.341Z,100291.93
2018-03-31T06:16:13.306Z,100291.27
2018-03-31T06:18:41.383Z,100291.44
2018-03-31T06:21:12.124Z,100290.56
2018-03-31T06:23:40.288Z,100297.63
2018-03-31T06:26:09.289Z,100296.38
2018-03-31T06:28:37.469Z,100295.65
2018-03-31T06:31:05.594Z,100298.41
2018-03-31T06:33:33.834Z,100287.66
2018-03-31T06:36:03.678Z,100291.27
2018-03-31T06:38:31.796Z,100292.27
2018-03-31T06:40:59.888Z,100294.61
2018-03-31T06:46:01.763Z,100292.83
2018-03-31T06:48:29.925Z,100291.32
2018-03-31T06:50:58.848Z,100291.85
2018-03-31T06:53:26.991Z,100290.95
2018-03-31T06:55:55.880Z,100287.73
2018-03-31T06:58:24.977Z,100290.02
2018-03-31T07:00:53.048Z,100290.28
2018-03-31T07:03:21.433Z,100285.85
2018-03-31T07:05:49.748Z,100289.94
2018-03-31T07:08:17.872Z,100293.84
2018-03-31T07:10:46.046Z,100293.93
2018-03-31T07:13:16.244Z,100296.73
2018-03-31T07:15:45.215Z,100300.42
2018-03-31T07:18:13.237Z,100302.16
2018-03-31T07:20:42.270Z,100298.75
2018-03-31T07:23:10.244Z,100300.11
2018-03-31T07:25:38.278Z,100290.03
2018-03-31T07:28:08.905Z,100294.00
2018-03-31T07:30:37.036Z,100293.86
2018-03-31T07:33:05.273Z,100288.48
2018-03-31T07:38:07.146Z,100275.50
2018-03-31T07:40:36.335Z,100288.24
2018-03-31T07:43:05.589Z,100293.64
2018-03-31T07:45:33.717Z,100283.66
2018-03-31T07:48:01.734Z,100283.42
2018-03-31T07:50:31.703Z,100292.19
2018-03-31T07:52:59.856Z,100293.98
2018-03-31T07:55:27.945Z,100292.67
2018-03-31T07:57:58.994Z,100297.72
2018-03-31T08:00:28.188Z,100290.97
2018-03-31T08:02:56.159Z,100288.97
2018-03-31T08:05:26.369Z,100291.09
2018-03-31T08:07:54.757Z,100287.16
2018-03-31T08:10:23.268Z,100289.69
2018-03-31T08:15:25.023Z,100290.95
2018-03-31T08:17:53.601Z,100285.96
2018-03-31T08:20:22.747Z,100284.96
2018-03-31T08:22:51.513Z,100287.30
2018-03-31T08:25:20.521Z,100278.96
2018-03-31T08:27:49.403Z,100270.85
2018-03-31T08:30:18.413Z,100276.09
2018-03-31T08:32:46.442Z,100271.31
2018-03-31T08:37:48.379Z,100265.41
2018-03-31T08:40:16.387Z,100260.62
2018-03-31T08:42:45.322Z,100255.59
2018-03-31T08:45:13.477Z,100262.47
2018-03-31T08:47:41.637Z,100259.38
2018-03-31T08:50:11.908Z,100256.30
2018-03-31T08:52:40.750Z,100255.22
2018-03-31T08:55:09.024Z,100257.31
2018-03-31T08:57:37.302Z,100252.05
2018-03-31T09:00:05.465Z,100241.92
2018-03-31T09:02:33.795Z,100239.21
2018-03-31T09:05:02.759Z,100240.55
2018-03-31T09:07:39.770Z,100237.95
2018-03-31T09:10:09.587Z,100226.26
2018-03-31T09:12:37.631Z,100231.81
2018-03-31T09:15:05.804Z,100230.87
2018-03-31T09:17:34.652Z,100229.97
2018-03-31T09:20:02.837Z,100237.48
2018-03-31T09:22:31.137Z,100234.91
2018-03-31T09:24:59.314Z,100223.58
2018-03-31T09:27:28.201Z,100223.73
2018-03-31T09:29:56.308Z,100213.84
2018-03-31T09:32:24.558Z,100214.39
2018-03-31T09:34:52.762Z,100211.25
2018-03-31T09:37:20.828Z,100207.50
2018-03-31T09:39:48.871Z,100202.10
2018-03-31T09:42:16.981Z,100201.11
2018-03-31T09:44:44.988Z,100199.37
2018-03-31T09:47:13.046Z,100202.33
2018-03-31T09:49:42.079Z,100195.18
2018-03-31T09:52:10.257Z,100191.09
2018-03-31T09:54:38.329Z,100188.76
2018-03-31T09:57:06.406Z,100183.45
2018-03-31T09:59:34.475Z,100177.06
2018-03-31T10:02:03.365Z,100171.39
2018-03-31T10:04:31.535Z,100153.36
2018-03-31T10:07:00.097Z,100168.17
2018-03-31T10:09:28.600Z,100165.77
2018-03-31T10:11:56.564Z,100151.30
2018-03-31T10:14:24.590Z,100162.20
2018-03-31T10:16:52.944Z,100156.23
2018-03-31T10:19:21.102Z,100148.33
2018-03-31T10:21:49.074Z,100149.22
2018-03-31T10:24:19.030Z,100134.94
2018-03-31T10:26:47.062Z,100140.36
2018-03-31T10:29:15.146Z,100126.88
2018-03-31T10:31:43.816Z,100114.43
2018-03-31T10:34:11.723Z,100121.82
2018-03-31T10:36:39.653Z,100116.53
2018-03-31T10:39:09.673Z,100110.75
2018-03-31T10:41:38.570Z,100116.87
2018-03-31T10:44:07.253Z,100127.19
2018-03-31T10:46:35.322Z,100127.05
2018-03-31T10:49:03.447Z,100129.20
2018-03-31T10:51:31.667Z,100131.87
2018-03-31T10:54:04.763Z,100115.92
2018-03-31T10:56:32.689Z,100113.18
2018-03-31T10:59:01.726Z,100112.38
2018-03-31T11:01:31.642Z,100111.02
2018-03-31T11:03:59.877Z,100096.72
2018-03-31T11:06:30.038Z,100099.55
2018-03-31T11:09:04.454Z,100093.20
2018-03-31T11:11:32.477Z,100105.03
2018-03-31T11:14:00.440Z,100101.88
2018-03-31T11:16:29.600Z,100097.17
2018-03-31T11:18:57.639Z,100101.42
2018-03-31T11:21:25.636Z,100099.52
2018-03-31T11:23:54.710Z,100095.77
2018-03-31T11:26:23.225Z,100089.67
2018-03-31T11:28:51.185Z,100090.95
2018-03-31T11:31:22.120Z,100084.02
2018-03-31T11:33:50.217Z,100082.03
2018-03-31T11:36:20.526Z,100077.08
2018-03-31T11:38:50.304Z,100062.12
2018-03-31T11:41:19.540Z,100058.30
2018-03-31T11:43:47.577Z,100056.62
2018-03-31T11:46:16.299Z,100049.69
2018-03-31T11:48:44.420Z,100049.98
2018-03-31T11:51:14.222Z,100042.63
2018-03-31T11:53:42.361Z,100042.88
2018-03-31T11:56:11.650Z,100033.95
2018-03-31T11:58:39.732Z,100046.47
2018-03-31T12:01:08.829Z,100041.75
2018-03-31T12:03:38.232Z,100046.39
2018-03-31T12:06:06.348Z,100047.39
2018-03-31T12:08:36.174Z,100029.94
2018-03-31T12:11:05.009Z,100028.23
2018-03-31T12:13:34.039Z,100019.78
2018-03-31T12:16:02.852Z,100021.13
2018-03-31T12:18:31.052Z,100011.66
2018-03-31T12:21:10.611Z,100001.99
2018-03-31T12:23:38.517Z,99997.98
2018-03-31T12:26:06.517Z,99992.59
2018-03-31T12:28:34.712Z,99994.19
2018-03-31T12:31:03.310Z,99996.09
2018-03-31T12:33:31.416Z,99986.75
2018-03-31T12:36:01.301Z,99986.98
2018-03-31T12:38:29.482Z,99976.38
2018-03-31T12:40:57.546Z,99956.53
2018-03-31T12:43:25.606Z,99953.12
2018-03-31T12:45:54.100Z,99940.33
2018-03-31T12:48:22.376Z,99937.87
2018-03-31T12:50:53.211Z,99941.85
2018-03-31T12:53:22.236Z,99950.76
2018-03-31T12:55:51.310Z,99958.81
2018-03-31T12:58:20.349Z,99959.68
2018-03-31T13:00:48.195Z,99948.82
2018-03-31T13:03:16.240Z,99959.33
2018-03-31T13:05:45.060Z,99948.59
2018-03-31T13:08:14.923Z,99945.93
2018-03-31T13:10:45.706Z,99945.80
2018-03-31T13:13:13.879Z,99933.30
2018-03-31T13:15:41.915Z,99936.86
2018-03-31T13:18:10.896Z,99934.60
2018-03-31T13:20:38.999Z,99938.03
2018-03-31T13:23:06.964Z,99925.01
2018-03-31T13:25:35.090Z,99919.45
2018-03-31T13:28:03.212Z,99914.09
2018-03-31T13:30:31.173Z,99914.53
2018-03-31T13:32:59.397Z,99912.21
2018-03-31T13:35:28.750Z,99908.67
2018-03-31T13:37:56.938Z,99915.86
2018-03-31T13:40:28.437Z,99916.50
2018-03-31T13:42:57.466Z,99913.85
2018-03-31T13:45:25.832Z,99901.66
2018-03-31T13:47:55.697Z,99905.75
2018-03-31T13:50:23.746Z,99894.27
2018-03-31T13:52:52.627Z,99891.04
2018-03-31T13:55:21.631Z,99883.03
2018-03-31T13:57:49.708Z,99875.69
2018-03-31T14:00:17.852Z,99869.02
2018-03-31T14:02:45.951Z,99867.41
2018-03-31T14:05:13.911Z,99865.55
2018-03-31T14:07:42.000Z,99868.41
2018-03-31T14:10:10.983Z,99868.53
2018-03-31T14:12:39.984Z,99856.85
2018-03-31T14:15:09.792Z,99855.20
2018-03-31T14:20:10.851Z,99855.41
2018-03-31T14:22:39.030Z,99845.41
2018-03-31T14:27:40.407Z,99844.66
2018-03-31T14:30:10.891Z,99839.30
2018-03-31T14:32:39.923Z,99842.86
2018-03-31T14:35:07.879Z,99835.72
2018-03-31T14:37:36.085Z,99831.09
2018-03-31T14:40:04.154Z,99821.86
2018-03-31T14:42:33.232Z,99820.66
2018-03-31T14:45:02.125Z,99817.75
2018-03-31T14:47:30.160Z,99816.27
2018-03-31T14:49:59.438Z,99827.05
2018-03-31T14:52:27.508Z,99826.06
2018-03-31T14:54:55.629Z,99817.61
2018-03-31T14:57:23.823Z,99815.91
2018-03-31T14:59:51.830Z,99810.20
2018-03-31T15:02:19.981Z,99800.88
2018-03-31T15:04:50.920Z,99796.75
2018-03-31T15:07:20.145Z,99793.66
2018-03-31T15:09:48.174Z,99800.80
2018-03-31T15:12:17.320Z,99799.41
2018-03-31T15:14:45.491Z,99795.81
2018-03-31T15:17:14.492Z,99791.46
2018-03-31T15:19:42.714Z,99782.39
2018-03-31T15:22:11.601Z,99782.63
2018-03-31T15:24:40.602Z,99788.30
2018-03-31T15:27:10.099Z,99781.31
2018-03-31T15:29:38.177Z,99781.20
2018-03-31T15:32:06.556Z,99774.69
2018-03-31T15:34:38.216Z,99778.34
2018-03-31T15:37:06.290Z,99777.61
2018-03-31T15:39:35.385Z,99785.19
2018-03-31T15:42:03.567Z,99775.08
2018-03-31T15:44:31.732Z,99779.16
2018-03-31T15:46:59.706Z,99778.01
2018-03-31T15:49:27.795Z,99782.48
2018-03-31T15:51:55.770Z,99787.25
2018-03-31T15:54:23.615Z,99780.86
2018-03-31T15:56:51.696Z,99776.15
2018-03-31T15:59:19.584Z,99768.77
2018-03-31T16:01:47.552Z,99768.78
2018-03-31T16:04:15.530Z,99767.05
2018-03-31T16:06:43.439Z,99769.69
2018-03-31T16:09:11.309Z,99755.94
2018-03-31T16:11:44.077Z,99760.34
2018-03-31T16:14:12.019Z,99763.13
2018-03-31T16:16:39.919Z,99761.92
2018-03-31T16:19:07.860Z,99755.94
2018-03-31T16:21:35.778Z,99761.66
2018-03-31T16:24:03.684Z,99760.95
2018-03-31T16:26:31.617Z,99761.75
2018-03-31T16:28:59.530Z,99757.08
2018-03-31T16:31:27.392Z,99755.17
2018-03-31T16:33:55.438Z,99736.78
2018-03-31T16:36:23.332Z,99736.14
2018-03-31T16:38:51.274Z,99742.36
2018-03-31T16:41:20.026Z,99732.39
2018-03-31T16:43:47.907Z,99732.83
2018-03-31T16:46:15.752Z,99731.86
2018-03-31T16:48:43.741Z,99737.59
2018-03-31T16:51:11.747Z,99734.08
2018-03-31T16:53:39.628Z,99735.72
2018-03-31T16:56:07.570Z,99738.28
2018-03-31T16:58:35.506Z,99738.72
2018-03-31T17:01:03.365Z,99730.77
2018-03-31T17:03:33.033Z,99735.79
2018-03-31T17:06:00.892Z,99742.05
2018-03-31T17:08:28.860Z,99740.66
2018-03-31T17:10:56.825Z,99749.45
2018-03-31T17:13:24.781Z,99745.03
2018-03-31T17:15:52.739Z,99748.87
2018-03-31T17:18:20.644Z,99750.07
2018-03-31T17:20:48.519Z,99747.84
2018-03-31T17:26:48.104Z,99752.48
2018-03-31T17:29:16.104Z,99756.58
2018-03-31T17:31:44.064Z,99756.58
2018-03-31T17:34:12.001Z,99754.86
2018-03-31T17:36:40.022Z,99750.20
2018-03-31T17:39:07.969Z,99758.55
2018-03-31T17:41:35.878Z,99751.56
2018-03-31T17:44:03.867Z,99750.25
2018-03-31T17:46:31.755Z,99748.58
2018-03-31T17:48:59.682Z,99740.74
2018-03-31T17:51:27.568Z,99734.80
2018-03-31T17:53:55.463Z,99726.88
2018-03-31T17:56:24.051Z,99730.89
2018-03-31T17:58:51.906Z,99731.16
2018-03-31T18:01:19.923Z,99742.84
2018-03-31T18:03:49.421Z,99751.17
2018-03-31T18:06:17.312Z,99750.84
2018-03-31T18:08:45.233Z,99754.66
2018-03-31T18:11:13.970Z,99753.86
2018-03-31T18:13:43.573Z,99757.46
2018-03-31T18:16:11.567Z,99753.06
2018-03-31T18:18:45.797Z,99758.05
2018-03-31T18:21:13.720Z,99762.77
2018-03-31T18:23:41.612Z,99761.89
2018-03-31T18:28:42.952Z,99764.48
2018-03-31T18:31:10.893Z,99758.22
2018-03-31T18:33:38.784Z,99746.05
2018-03-31T18:36:09.500Z,99742.62
2018-03-31T18:38:37.379Z,99736.64
2018-03-31T18:41:05.270Z,99724.73
2018-03-31T18:43:34.106Z,99717.98
2018-03-31T18:46:01.968Z,99721.40
2018-03-31T18:48:29.903Z,99710.05
2018-03-31T18:50:58.625Z,99702.47
2018-03-31T18:53:26.539Z,99711.07
2018-03-31T18:55:54.427Z,99705.66
2018-03-31T19:00:55.150Z,99706.39
2018-03-31T19:03:23.141Z,99700.99
2018-03-31T19:05:51.060Z,99694.41
2018-03-31T19:08:19.073Z,99685.64
2018-03-31T19:10:47.175Z,99685.88
2018-03-31T19:13:15.610Z,99684.77
2018-03-31T19:15:43.677Z,99687.12
2018-03-31T19:18:11.667Z,99681.73
2018-03-31T19:23:13.959Z,99678.19
2018-03-31T19:25:42.856Z,99676.38
2018-03-31T19:28:11.988Z,99671.77
2018-03-31T19:30:46.576Z,99666.31
2018-03-31T19:33:19.250Z,99674.02
2018-03-31T19:35:52.957Z,99662.54
2018-03-31T19:38:21.953Z,99678.22
2018-03-31T19:40:50.332Z,99674.84
2018-03-31T19:43:18.417Z,99668.13
2018-03-31T19:45:47.392Z,99661.06
2018-03-31T19:48:15.526Z,99660.61
2018-03-31T19:50:43.645Z,99660.99
2018-03-31T19:53:11.869Z,99649.50
2018-03-31T19:55:39.730Z,99641.56
2018-03-31T19:58:08.591Z,99638.67
2018-03-31T20:00:36.524Z,99644.70
2018-03-31T20:03:04.476Z,99633.88
2018-03-31T20:05:32.648Z,99637.94
2018-03-31T20:08:02.436Z,99635.50
2018-03-31T20:10:30.367Z,99625.36
2018-03-31T20:12:58.251Z,99621.55
2018-03-31T20:15:26.200Z,99614.45
2018-03-31T20:17:54.095Z,99611.42
2018-03-31T20:20:21.979Z,99609.31
2018-03-31T20:22:50.708Z,99614.28
2018-03-31T20:25:18.559Z,99615.09
2018-03-31T20:27:46.404Z,99620.01
2018-03-31T20:30:14.369Z,99607.97
2018-03-31T20:32:42.279Z,99601.91
2018-03-31T20:35:10.331Z,99605.63
2018-03-31T20:37:40.688Z,99600.20
2018-03-31T20:40:08.608Z,99595.19
2018-03-31T20:42:36.479Z,99587.13
2018-03-31T20:45:06.979Z,99591.79
2018-03-31T20:47:34.864Z,99585.08
2018-03-31T20:50:02.766Z,99576.59
2018-03-31T20:52:30.673Z,99578.67
2018-03-31T20:54:58.611Z,99571.59
2018-03-31T20:57:26.521Z,99568.97
2018-03-31T20:59:55.487Z,99565.20
2018-03-31T21:02:23.477Z,99564.80
2018-03-31T21:04:51.596Z,99560.95
2018-03-31T21:07:23.410Z,99562.26
2018-03-31T21:09:52.696Z,99555.22
2018-03-31T21:12:20.837Z,99543.87
2018-03-31T21:14:48.957Z,99539.45
2018-03-31T21:17:17.236Z,99533.14
2018-03-31T21:19:45.428Z,99542.11
2018-03-31T21:22:16.149Z,99526.14
2018-03-31T21:24:44.160Z,99537.58
2018-03-31T21:27:13.766Z,99526.72
2018-03-31T21:29:42.746Z,99528.13
2018-03-31T21:32:10.881Z,99514.66
2018-03-31T21:34:38.965Z,99513.58
2018-03-31T21:39:40.343Z,99510.61
2018-03-31T21:42:09.329Z,99496.66
2018-03-31T21:44:38.291Z,99505.39
2018-03-31T21:47:06.229Z,99505.07
2018-03-31T21:49:34.769Z,99492.97
2018-03-31T21:52:04.209Z,99496.23
2018-03-31T21:54:32.360Z,99492.41
2018-03-31T21:57:00.570Z,99493.26
2018-03-31T22:02:08.245Z,99477.47
2018-03-31T22:04:36.226Z,99483.81
2018-03-31T22:07:04.164Z,99477.94
2018-03-31T22:09:32.150Z,99476.65
2018-03-31T22:12:00.057Z,99465.13
2018-03-31T22:14:33.421Z,99463.98
2018-03-31T22:17:01.310Z,99460.08
2018-03-31T22:19:29.270Z,99464.26
2018-03-31T22:21:57.199Z,99453.28
2018-03-31T22:24:25.098Z,99453.32
2018-03-31T22:26:53.004Z,99442.25
2018-03-31T22:29:20.932Z,99447.44
2018-03-31T22:31:48.796Z,99451.80
2018-03-31T22:34:16.664Z,99450.43
2018-03-31T22:36:44.600Z,99439.08
2018-03-31T22:39:12.452Z,99447.00
2018-03-31T22:41:40.364Z,99443.19
2018-03-31T22:44:08.262Z,99428.78
2018-03-31T22:46:36.135Z,99429.30
2018-03-31T22:49:03.994Z,99421.31
2018-03-31T22:51:31.924Z,99436.13
2018-03-31T22:53:59.806Z,99420.28
2018-03-31T22:56:27.724Z,99415.75
2018-03-31T22:58:55.623Z,99427.63
2018-03-31T23:01:23.488Z,99420.91
2018-03-31T23:03:51.725Z,99415.86
2018-03-31T23:06:19.934Z,99423.36
2018-03-31T23:08:48.092Z,99411.48
2018-03-31T23:11:16.370Z,99414.00
2018-03-31T23:13:45.477Z,99407.28
2018-03-31T23:16:13.652Z,99410.47
2018-03-31T23:18:41.884Z,99410.83
2018-03-31T23:21:10.158Z,99403.10
2018-03-31T23:23:38.327Z,99392.15
2018-03-31T23:26:06.594Z,99377.40
2018-03-31T23:28:36.624Z,99377.52
2018-03-31T23:31:06.219Z,99382.16
2018-03-31T23:33:34.594Z,99363.83
2018-03-31T23:36:04.580Z,99362.98
2018-03-31T23:38:32.596Z,99356.95
2018-03-31T23:41:00.757Z,99356.81
2018-03-31T23:43:28.758Z,99349.89
2018-03-31T23:45:56.805Z,99341.73
2018-03-31T23:48:25.692Z,99332.27
2018-03-31T23:50:54.579Z,99336.75
2018-03-31T23:53:22.476Z,99339.56
2018-03-31T23:55:50.356Z,99339.52
2018-03-31T23:58:19.200Z,99333.28
